createdAt,value
2018-12-08T00:01:10.239Z,5.27
2018-12-08T00:03:39.100Z,3.97
2018-12-08T00:06:07.941Z,3.67
2018-12-08T00:08:36.775Z,5.87
2018-12-08T00:11:05.628Z,5.07
2018-12-08T00:13:34.431Z,4.87
2018-12-08T00:16:03.248Z,4.40
2018-12-08T00:18:32.103Z,6.37
2018-12-08T00:21:00.989Z,5.03
2018-12-08T00:23:29.816Z,6.77
2018-12-08T00:25:58.638Z,4.67
2018-12-08T00:28:27.475Z,7.30
2018-12-08T00:31:07.841Z,4.97
2018-12-08T00:33:36.683Z,4.80
2018-12-08T00:36:05.563Z,5.67
2018-12-08T00:38:34.614Z,5.43
2018-12-08T00:41:03.400Z,5.73
2018-12-08T00:43:32.248Z,5.33
2018-12-08T00:46:01.085Z,7.47
2018-12-08T00:48:29.916Z,5.80
2018-12-08T00:50:58.727Z,4.83
2018-12-08T00:53:27.591Z,5.50
2018-12-08T00:55:57.221Z,4.07
2018-12-08T00:58:26.032Z,4.33
2018-12-08T01:00:54.899Z,4.70
2018-12-08T01:03:23.678Z,4.77
2018-12-08T01:05:52.471Z,3.80
2018-12-08T01:08:21.266Z,3.57
2018-12-08T01:10:50.077Z,4.73
2018-12-08T01:13:18.876Z,4.07
2018-12-08T01:15:47.680Z,4.87
2018-12-08T01:18:16.479Z,5.17
2018-12-08T01:20:45.301Z,5.00
2018-12-08T01:23:14.144Z,5.77
2018-12-08T01:25:42.958Z,5.70
2018-12-08T01:28:12.484Z,5.60
2018-12-08T01:30:41.280Z,7.67
2018-12-08T01:33:10.134Z,10.93
2018-12-08T01:35:38.929Z,5.17
2018-12-08T01:38:07.746Z,7.07
2018-12-08T01:40:36.578Z,5.80
2018-12-08T01:43:05.387Z,4.80
2018-12-08T01:45:34.214Z,6.20
2018-12-08T01:48:03.108Z,7.63
2018-12-08T01:50:32.029Z,8.10
2018-12-08T01:53:00.851Z,10.37
2018-12-08T01:55:29.734Z,8.37
2018-12-08T01:57:59.827Z,4.33
2018-12-08T02:00:28.660Z,3.70
2018-12-08T02:02:57.567Z,3.63
2018-12-08T02:05:26.370Z,4.53
2018-12-08T02:07:55.258Z,4.27
2018-12-08T02:10:23.964Z,3.23
2018-12-08T02:12:52.771Z,4.57
2018-12-08T02:15:21.580Z,4.13
2018-12-08T02:17:50.398Z,4.30
2018-12-08T02:20:19.207Z,3.90
2018-12-08T02:22:48.026Z,3.90
2018-12-08T02:25:16.818Z,3.80
2018-12-08T02:27:45.731Z,4.27
2018-12-08T02:30:14.543Z,4.17
2018-12-08T02:32:43.322Z,3.80
2018-12-08T02:35:12.790Z,4.13
2018-12-08T02:37:41.596Z,5.47
2018-12-08T02:40:10.391Z,4.83
2018-12-08T02:42:39.293Z,5.43
2018-12-08T02:45:08.092Z,4.67
2018-12-08T02:47:36.934Z,4.20
2018-12-08T02:50:05.878Z,4.90
2018-12-08T02:52:34.757Z,4.63
2018-12-08T02:55:03.592Z,3.77
2018-12-08T02:57:32.959Z,4.17
2018-12-08T03:00:01.768Z,4.10
2018-12-08T03:02:30.594Z,3.63
2018-12-08T03:04:59.416Z,5.17
2018-12-08T03:07:28.183Z,4.40
2018-12-08T03:09:57.061Z,4.50
2018-12-08T03:12:25.863Z,4.40
2018-12-08T03:14:54.746Z,3.97
2018-12-08T03:17:23.523Z,4.17
2018-12-08T03:19:52.322Z,4.03
2018-12-08T03:22:21.128Z,3.70
2018-12-08T03:24:49.933Z,4.37
2018-12-08T03:27:18.796Z,4.57
2018-12-08T03:29:47.854Z,4.17
2018-12-08T03:32:16.730Z,6.37
2018-12-08T03:34:45.538Z,4.27
2018-12-08T03:37:14.350Z,4.10
2018-12-08T03:39:43.279Z,4.40
2018-12-08T03:42:12.961Z,4.23
2018-12-08T03:44:41.786Z,5.00
2018-12-08T03:47:12.525Z,4.57
2018-12-08T03:49:41.324Z,4.97
2018-12-08T03:52:11.305Z,4.63
2018-12-08T03:54:40.294Z,4.90
2018-12-08T03:57:08.935Z,4.63
2018-12-08T03:59:37.744Z,5.03
2018-12-08T04:02:06.601Z,5.00
2018-12-08T04:04:35.427Z,4.00
2018-12-08T04:07:04.236Z,4.40
2018-12-08T04:09:33.040Z,4.67
2018-12-08T04:12:01.859Z,4.40
2018-12-08T04:14:30.722Z,4.43
2018-12-08T04:16:59.512Z,4.83
2018-12-08T04:19:28.335Z,3.67
2018-12-08T04:21:57.171Z,4.37
2018-12-08T04:24:26.058Z,4.83
2018-12-08T04:26:54.906Z,3.90
2018-12-08T04:29:23.692Z,4.23
2018-12-08T04:31:52.542Z,4.30
2018-12-08T04:34:21.335Z,4.27
2018-12-08T04:36:50.135Z,4.87
2018-12-08T04:39:18.950Z,4.33
2018-12-08T04:41:47.763Z,3.87
2018-12-08T04:44:16.586Z,4.53
2018-12-08T04:46:45.491Z,5.03
2018-12-08T04:49:14.326Z,4.73
2018-12-08T04:51:43.235Z,4.07
2018-12-08T04:54:12.051Z,4.13
2018-12-08T04:56:40.871Z,4.80
2018-12-08T04:59:10.071Z,4.43
2018-12-08T05:01:38.940Z,3.90
2018-12-08T05:04:07.790Z,4.43
2018-12-08T05:06:36.626Z,4.37
2018-12-08T05:09:07.039Z,4.93
2018-12-08T05:11:35.874Z,4.80
2018-12-08T05:14:04.682Z,5.40
2018-12-08T05:16:33.504Z,4.20
2018-12-08T05:19:02.349Z,4.43
2018-12-08T05:21:31.240Z,5.00
2018-12-08T05:24:00.188Z,5.03
2018-12-08T05:26:28.979Z,3.93
2018-12-08T05:28:57.806Z,5.10
2018-12-08T05:31:26.662Z,5.07
2018-12-08T05:33:55.959Z,4.93
2018-12-08T05:36:24.775Z,4.93
2018-12-08T05:38:53.610Z,5.07
2018-12-08T05:41:22.420Z,6.03
2018-12-08T05:43:51.277Z,4.20
2018-12-08T05:46:20.071Z,5.07
2018-12-08T05:48:48.891Z,4.40
2018-12-08T05:51:17.694Z,5.37
2018-12-08T05:53:46.543Z,5.83
2018-12-08T05:56:15.343Z,5.60
2018-12-08T05:58:44.186Z,5.73
2018-12-08T06:01:12.986Z,6.10
2018-12-08T06:03:41.784Z,5.93
2018-12-08T06:06:10.680Z,6.13
2018-12-08T06:08:39.455Z,5.53
2018-12-08T06:11:08.327Z,5.80
2018-12-08T06:13:37.231Z,6.00
2018-12-08T06:16:06.015Z,5.77
2018-12-08T06:18:34.848Z,4.40
2018-12-08T06:21:03.681Z,6.27
2018-12-08T06:23:32.479Z,5.03
2018-12-08T06:26:10.007Z,5.43
2018-12-08T06:28:40.040Z,5.17
2018-12-08T06:31:09.826Z,5.80
2018-12-08T06:33:38.742Z,4.87
2018-12-08T06:36:07.558Z,5.47
2018-12-08T06:38:36.423Z,4.80
2018-12-08T06:41:05.254Z,5.70
2018-12-08T06:43:34.131Z,5.83
2018-12-08T06:46:02.951Z,5.70
2018-12-08T06:48:31.775Z,5.80
2018-12-08T06:51:00.591Z,5.30
2018-12-08T06:53:29.983Z,6.70
2018-12-08T06:55:59.123Z,5.83
2018-12-08T06:58:28.731Z,6.20
2018-12-08T07:00:57.531Z,5.30
2018-12-08T07:03:26.367Z,5.87
2018-12-08T07:05:55.191Z,5.93
2018-12-08T07:08:24.766Z,6.13
2018-12-08T07:10:53.571Z,6.67
2018-12-08T07:13:22.462Z,6.37
2018-12-08T07:15:51.263Z,6.40
2018-12-08T07:18:20.075Z,6.77
2018-12-08T07:20:48.906Z,6.80
2018-12-08T07:23:18.125Z,5.70
2018-12-08T07:25:47.442Z,6.33
2018-12-08T07:28:16.330Z,6.50
2018-12-08T07:30:45.110Z,6.90
2018-12-08T07:33:13.952Z,6.00
2018-12-08T07:35:42.862Z,6.40
2018-12-08T07:38:11.695Z,6.80
2018-12-08T07:40:40.568Z,7.60
2018-12-08T07:43:09.372Z,7.67
2018-12-08T07:45:38.162Z,6.67
2018-12-08T07:48:06.992Z,6.90
2018-12-08T07:50:35.771Z,8.20
2018-12-08T07:53:04.627Z,8.07
2018-12-08T07:55:33.399Z,7.17
2018-12-08T07:58:02.228Z,7.80
2018-12-08T08:00:31.015Z,7.23
2018-12-08T08:03:06.474Z,8.00
2018-12-08T08:05:35.811Z,6.97
2018-12-08T08:08:04.633Z,7.30
2018-12-08T08:10:33.519Z,6.93
2018-12-08T08:13:05.304Z,7.43
2018-12-08T08:15:34.114Z,7.13
2018-12-08T08:18:02.928Z,7.50
2018-12-08T08:20:31.766Z,6.03
2018-12-08T08:23:00.555Z,6.47
2018-12-08T08:25:29.333Z,7.87
2018-12-08T08:27:59.291Z,7.63
2018-12-08T08:30:28.171Z,6.83
2018-12-08T08:32:57.357Z,6.60
2018-12-08T08:35:26.216Z,6.37
2018-12-08T08:37:55.601Z,7.13
2018-12-08T08:40:24.454Z,6.20
2018-12-08T08:42:53.423Z,6.30
2018-12-08T08:45:22.235Z,5.60
2018-12-08T08:47:51.049Z,6.20
2018-12-08T08:50:20.768Z,6.20
2018-12-08T08:52:49.584Z,6.33
2018-12-08T08:55:18.390Z,5.43
2018-12-08T08:57:47.192Z,6.57
2018-12-08T09:00:16.038Z,6.27
2018-12-08T09:02:44.880Z,5.30
2018-12-08T09:05:13.719Z,5.53
2018-12-08T09:07:42.584Z,5.20
2018-12-08T09:10:12.540Z,6.13
2018-12-08T09:12:41.339Z,5.40
2018-12-08T09:15:10.179Z,5.93
2018-12-08T09:17:39.021Z,5.40
2018-12-08T09:20:10.157Z,5.87
2018-12-08T09:22:39.356Z,7.10
2018-12-08T09:25:09.152Z,6.30
2018-12-08T09:27:37.971Z,5.37
2018-12-08T09:30:08.998Z,7.00
2018-12-08T09:32:37.784Z,6.60
2018-12-08T09:35:06.629Z,5.10
2018-12-08T09:37:35.446Z,5.70
2018-12-08T09:40:04.751Z,5.40
2018-12-08T09:42:33.552Z,6.30
2018-12-08T09:45:02.387Z,6.17
2018-12-08T09:47:31.233Z,5.00
2018-12-08T09:50:00.046Z,5.90
2018-12-08T09:52:28.838Z,5.50
2018-12-08T09:54:57.692Z,5.90
2018-12-08T09:57:26.519Z,5.20
2018-12-08T09:59:55.327Z,5.77
2018-12-08T10:02:24.199Z,4.90
2018-12-08T10:04:53.019Z,6.10
2018-12-08T10:07:21.904Z,5.33
2018-12-08T10:09:50.687Z,5.53
2018-12-08T10:12:19.503Z,5.87
2018-12-08T10:14:48.304Z,5.27
2018-12-08T10:17:17.103Z,5.10
2018-12-08T10:19:45.924Z,5.27
2018-12-08T10:22:14.744Z,6.23
2018-12-08T10:24:43.558Z,6.37
2018-12-08T10:27:13.391Z,4.97
2018-12-08T10:29:42.207Z,6.23
2018-12-08T10:32:11.257Z,5.60
2018-12-08T10:34:40.128Z,5.17
2018-12-08T10:37:08.946Z,5.43
2018-12-08T10:39:37.747Z,7.73
2018-12-08T10:42:06.576Z,10.47
2018-12-08T10:44:35.402Z,6.20
2018-12-08T10:47:04.210Z,5.77
2018-12-08T10:49:33.023Z,5.90
2018-12-08T10:52:01.828Z,6.17
2018-12-08T10:54:30.665Z,5.53
2018-12-08T10:56:59.469Z,4.77
2018-12-08T10:59:28.267Z,6.07
2018-12-08T11:02:01.284Z,5.60
2018-12-08T11:04:30.441Z,5.77
2018-12-08T11:06:59.216Z,4.93
2018-12-08T11:09:28.077Z,5.50
2018-12-08T11:11:56.883Z,6.23
2018-12-08T11:14:25.951Z,5.40
2018-12-08T11:16:54.812Z,4.87
2018-12-08T11:19:23.619Z,5.07
2018-12-08T11:21:52.470Z,4.70
2018-12-08T11:24:21.264Z,6.37
2018-12-08T11:26:50.059Z,6.00
2018-12-08T11:29:18.887Z,4.33
2018-12-08T11:31:47.675Z,5.33
2018-12-08T11:34:16.500Z,5.67
2018-12-08T11:36:49.516Z,5.77
2018-12-08T11:39:14.819Z,5.47
2018-12-08T11:41:44.214Z,5.47
2018-12-08T11:44:13.048Z,5.33
2018-12-08T11:46:42.607Z,4.50
2018-12-08T11:49:11.502Z,4.97
2018-12-08T11:51:40.330Z,5.37
2018-12-08T11:54:09.138Z,5.70
2018-12-08T11:56:37.939Z,4.80
2018-12-08T11:59:06.719Z,7.43
2018-12-08T12:01:35.527Z,6.70
2018-12-08T12:04:04.337Z,5.30
2018-12-08T12:06:33.130Z,5.60
2018-12-08T12:09:01.995Z,5.30
2018-12-08T12:11:30.888Z,5.00
2018-12-08T12:13:59.876Z,4.40
2018-12-08T12:16:28.666Z,5.00
2018-12-08T12:18:57.483Z,5.00
2018-12-08T12:21:26.323Z,5.17
2018-12-08T12:23:55.152Z,5.53
2018-12-08T12:26:24.011Z,5.13
2018-12-08T12:28:52.863Z,3.60
2018-12-08T12:31:21.671Z,4.37
2018-12-08T12:33:50.468Z,5.10
2018-12-08T12:36:19.286Z,4.93
2018-12-08T12:38:48.131Z,5.33
2018-12-08T12:41:16.960Z,5.20
2018-12-08T12:43:45.976Z,5.23
2018-12-08T12:46:14.807Z,4.47
2018-12-08T12:48:43.642Z,4.60
2018-12-08T12:51:12.464Z,4.83
2018-12-08T12:53:41.283Z,5.00
2018-12-08T12:56:10.427Z,4.90
2018-12-08T12:58:39.274Z,5.40
2018-12-08T13:01:08.146Z,5.53
2018-12-08T13:03:37.074Z,4.10
2018-12-08T13:06:05.950Z,4.47
2018-12-08T13:08:34.951Z,3.93
2018-12-08T13:11:03.780Z,5.33
2018-12-08T13:13:32.570Z,4.83
2018-12-08T13:16:01.388Z,5.67
2018-12-08T13:18:30.911Z,4.40
2018-12-08T13:20:59.729Z,4.53
2018-12-08T13:23:28.595Z,4.50
2018-12-08T13:26:04.134Z,4.57
2018-12-08T13:28:32.965Z,4.47
2018-12-08T13:31:02.792Z,4.07
2018-12-08T13:33:31.670Z,5.23
2018-12-08T13:36:01.807Z,4.47
2018-12-08T13:38:33.046Z,4.57
2018-12-08T13:41:03.637Z,3.47
2018-12-08T13:43:32.480Z,3.83
2018-12-08T13:46:01.308Z,4.57
2018-12-08T13:48:32.423Z,3.50
2018-12-08T13:51:01.961Z,3.87
2018-12-08T13:53:36.701Z,4.13
2018-12-08T13:55:59.873Z,4.77
2018-12-08T13:58:28.751Z,4.13
2018-12-08T14:00:57.586Z,4.17
2018-12-08T14:03:26.430Z,3.87
2018-12-08T14:05:55.345Z,4.20
2018-12-08T14:08:24.268Z,4.43
2018-12-08T14:10:53.108Z,5.37
2018-12-08T14:13:21.937Z,3.93
2018-12-08T14:15:50.791Z,4.40
2018-12-08T14:18:19.603Z,4.13
2018-12-08T14:20:48.417Z,4.23
2018-12-08T14:23:17.241Z,3.70
2018-12-08T14:25:46.141Z,4.40
2018-12-08T14:28:14.975Z,4.17
2018-12-08T14:30:43.795Z,4.37
2018-12-08T14:33:15.342Z,3.47
2018-12-08T14:35:42.679Z,3.77
2018-12-08T14:38:13.253Z,4.67
2018-12-08T14:40:42.699Z,4.13
2018-12-08T14:43:11.542Z,4.20
2018-12-08T14:45:40.394Z,4.77
2018-12-08T14:48:09.269Z,4.63
2018-12-08T14:50:39.082Z,4.20
2018-12-08T14:53:07.922Z,4.90
2018-12-08T14:55:36.882Z,5.13
2018-12-08T14:58:05.720Z,4.20
2018-12-08T15:00:34.575Z,3.87
2018-12-08T15:03:03.427Z,4.60
2018-12-08T15:05:32.231Z,4.53
2018-12-08T15:08:01.050Z,5.23
2018-12-08T15:10:29.903Z,6.37
2018-12-08T15:12:58.713Z,5.33
2018-12-08T15:15:27.504Z,5.13
2018-12-08T15:17:56.338Z,5.00
2018-12-08T15:20:25.173Z,6.23
2018-12-08T15:22:53.964Z,5.47
2018-12-08T15:25:22.871Z,5.60
2018-12-08T15:27:51.683Z,5.50
2018-12-08T15:30:20.513Z,5.67
2018-12-08T15:32:49.376Z,6.60
2018-12-08T15:35:18.166Z,6.50
2018-12-08T15:37:46.983Z,6.27
2018-12-08T15:40:15.822Z,7.43
2018-12-08T15:42:44.716Z,6.80
2018-12-08T15:45:13.526Z,6.77
2018-12-08T15:47:42.986Z,6.03
2018-12-08T15:50:13.552Z,7.67
2018-12-08T15:52:42.990Z,7.40
2018-12-08T15:55:12.250Z,7.33
2018-12-08T15:57:41.076Z,8.83
2018-12-08T16:00:11.699Z,8.10
2018-12-08T16:02:41.391Z,7.93
2018-12-08T16:05:10.731Z,8.50
2018-12-08T16:07:40.595Z,8.93
2018-12-08T16:10:10.170Z,6.50
2018-12-08T16:12:46.992Z,6.60
2018-12-08T16:15:15.838Z,7.80
2018-12-08T16:17:44.758Z,7.93
2018-12-08T16:20:13.933Z,8.40
2018-12-08T16:22:43.843Z,8.47
2018-12-08T16:25:12.745Z,7.30
2018-12-08T16:27:41.636Z,8.10
2018-12-08T16:30:23.116Z,7.43
2018-12-08T16:32:52.985Z,6.77
2018-12-08T16:35:21.976Z,9.63
2018-12-08T16:37:56.853Z,6.33
2018-12-08T16:40:19.643Z,9.00
2018-12-08T16:42:48.735Z,6.90
2018-12-08T16:45:20.817Z,7.10
2018-12-08T16:47:49.699Z,6.23
2018-12-08T16:50:20.856Z,5.50
2018-12-08T16:52:51.823Z,6.67
2018-12-08T16:55:20.635Z,7.83
2018-12-08T17:00:43.690Z,7.00
2018-12-08T17:03:16.530Z,5.87
2018-12-08T17:05:46.168Z,5.80
2018-12-08T17:08:15.158Z,5.90
2018-12-08T17:10:43.982Z,5.87
2018-12-08T17:13:12.830Z,4.53
2018-12-08T17:15:41.661Z,5.97
2018-12-08T17:18:14.344Z,5.90
2018-12-08T17:20:44.287Z,5.33
2018-12-08T17:23:13.116Z,3.60
2018-12-08T17:25:41.917Z,6.63
2018-12-08T17:28:10.763Z,5.43
2018-12-08T17:30:41.333Z,5.37
2018-12-08T17:33:10.147Z,6.07
2018-12-08T17:35:39.067Z,5.43
2018-12-08T17:38:08.171Z,5.80
2018-12-08T17:40:36.996Z,7.03
2018-12-08T17:43:05.847Z,6.43
2018-12-08T17:45:34.687Z,6.60
2018-12-08T17:48:03.629Z,7.57
2018-12-08T17:50:32.459Z,7.80
2018-12-08T17:53:01.275Z,7.03
2018-12-08T17:55:30.109Z,7.33
2018-12-08T17:57:58.923Z,6.83
2018-12-08T18:00:27.747Z,6.90
2018-12-08T18:02:57.332Z,7.43
2018-12-08T18:05:26.249Z,6.70
2018-12-08T18:07:55.053Z,7.33
2018-12-08T18:10:23.867Z,7.70
2018-12-08T18:12:52.717Z,6.70
2018-12-08T18:15:21.524Z,6.93
2018-12-08T18:17:50.327Z,7.50
2018-12-08T18:20:19.375Z,6.93
2018-12-08T18:22:48.482Z,7.07
2018-12-08T18:25:17.140Z,7.00
2018-12-08T18:27:47.184Z,5.80
2018-12-08T18:30:16.151Z,5.20
2018-12-08T18:32:44.968Z,5.20
2018-12-08T18:35:14.479Z,3.87
2018-12-08T18:37:43.338Z,3.40
2018-12-08T18:40:12.239Z,3.80
2018-12-08T18:42:41.087Z,2.80
2018-12-08T18:45:09.930Z,3.03
2018-12-08T18:47:38.752Z,3.40
2018-12-08T18:50:09.366Z,3.57
2018-12-08T18:52:38.314Z,3.10
2018-12-08T18:55:07.144Z,3.47
2018-12-08T18:57:35.972Z,3.07
2018-12-08T19:00:07.207Z,2.70
2018-12-08T19:02:36.167Z,2.50
2018-12-08T19:05:05.384Z,2.73
2018-12-08T19:07:34.207Z,2.60
2018-12-08T19:10:03.048Z,3.27
2018-12-08T19:12:31.854Z,2.50
2018-12-08T19:15:00.724Z,2.70
2018-12-08T19:17:29.535Z,2.40
2018-12-08T19:19:58.365Z,2.47
2018-12-08T19:22:27.173Z,2.30
2018-12-08T19:24:55.988Z,2.47
2018-12-08T19:27:24.852Z,2.30
2018-12-08T19:29:53.700Z,2.07
2018-12-08T19:32:22.538Z,2.10
2018-12-08T19:34:51.333Z,5.97
2018-12-08T19:37:20.106Z,7.10
2018-12-08T19:39:49.067Z,1.73
2018-12-08T19:42:17.828Z,1.87
2018-12-08T19:44:46.635Z,2.10
2018-12-08T19:47:15.483Z,1.97
2018-12-08T19:49:44.326Z,2.23
2018-12-08T19:52:13.204Z,1.57
2018-12-08T19:54:42.004Z,2.07
2018-12-08T19:57:10.881Z,2.33
2018-12-08T19:59:40.705Z,2.10
2018-12-08T20:02:09.533Z,2.17
2018-12-08T20:04:38.330Z,2.10
2018-12-08T20:07:07.223Z,2.00
2018-12-08T20:09:36.059Z,1.93
2018-12-08T20:12:04.958Z,1.73
2018-12-08T20:14:34.212Z,1.73
2018-12-08T20:17:03.098Z,1.97
2018-12-08T20:19:31.930Z,1.70
2018-12-08T20:22:00.723Z,1.57
2018-12-08T20:24:31.026Z,1.40
2018-12-08T20:27:01.183Z,2.10
2018-12-08T20:29:30.666Z,1.60
2018-12-08T20:31:59.496Z,1.33
2018-12-08T20:34:28.359Z,1.53
2018-12-08T20:36:57.219Z,1.20
2018-12-08T20:39:26.076Z,1.53
2018-12-08T20:41:54.921Z,3.07
2018-12-08T20:44:23.823Z,1.70
2018-12-08T20:46:52.630Z,1.93
2018-12-08T20:49:21.535Z,2.33
2018-12-08T20:51:50.501Z,1.90
2018-12-08T20:54:19.464Z,1.80
2018-12-08T20:56:48.327Z,1.70
2018-12-08T20:59:17.163Z,1.70
2018-12-08T21:01:45.995Z,1.97
2018-12-08T21:04:16.170Z,2.77
2018-12-08T21:06:45.253Z,2.40
2018-12-08T21:09:14.442Z,3.10
2018-12-08T21:11:43.345Z,2.50
2018-12-08T21:14:12.203Z,2.93
2018-12-08T21:16:41.746Z,2.63
2018-12-08T21:19:10.675Z,2.90
2018-12-08T21:21:39.722Z,3.07
2018-12-08T21:24:08.634Z,3.20
2018-12-08T21:26:37.668Z,4.00
2018-12-08T21:29:06.506Z,4.47
2018-12-08T21:31:35.459Z,5.23
2018-12-08T21:34:05.294Z,4.77
2018-12-08T21:36:34.187Z,5.67
2018-12-08T21:39:03.243Z,4.23
2018-12-08T21:41:32.519Z,4.83
2018-12-08T21:44:02.480Z,4.73
2018-12-08T21:46:31.388Z,5.07
2018-12-08T21:49:00.193Z,5.60
2018-12-08T21:51:29.039Z,6.20
2018-12-08T21:53:58.452Z,6.13
2018-12-08T21:56:27.258Z,7.43
2018-12-08T21:58:56.057Z,5.93
2018-12-08T22:01:24.906Z,5.50
2018-12-08T22:03:54.251Z,6.43
2018-12-08T22:06:23.152Z,8.73
2018-12-08T22:08:51.955Z,12.13
2018-12-08T22:11:21.080Z,6.90
2018-12-08T22:13:50.011Z,7.47
2018-12-08T22:16:19.918Z,6.73
2018-12-08T22:18:48.848Z,7.40
2018-12-08T22:21:17.671Z,7.60
2018-12-08T22:23:46.787Z,6.23
2018-12-08T22:26:15.595Z,3.00
2018-12-08T22:28:44.468Z,3.03
2018-12-08T22:31:14.417Z,3.20
2018-12-08T22:33:43.408Z,3.13
2018-12-08T22:36:13.770Z,3.40
2018-12-08T22:38:42.606Z,2.37
2018-12-08T22:41:12.014Z,2.90
2018-12-08T22:43:40.897Z,3.80
2018-12-08T22:46:09.691Z,2.40
2018-12-08T22:48:38.631Z,2.73
2018-12-08T22:51:09.311Z,2.40
2018-12-08T22:53:38.167Z,2.93
2018-12-08T22:56:07.014Z,2.60
2018-12-08T22:58:35.886Z,3.20
2018-12-08T23:01:04.738Z,3.70
2018-12-08T23:03:34.315Z,4.27
2018-12-08T23:06:03.228Z,3.63
2018-12-08T23:08:32.059Z,3.63
2018-12-08T23:11:01.482Z,4.53
2018-12-08T23:13:29.857Z,4.47
2018-12-08T23:15:58.802Z,4.33
2018-12-08T23:18:27.635Z,4.83
2018-12-08T23:20:57.390Z,5.17
2018-12-08T23:23:26.206Z,6.17
2018-12-08T23:25:55.031Z,5.57
2018-12-08T23:28:24.860Z,8.07
2018-12-08T23:30:53.929Z,9.00
2018-12-08T23:33:22.808Z,8.27
2018-12-08T23:35:51.744Z,8.10
2018-12-08T23:38:20.718Z,8.43
2018-12-08T23:40:49.548Z,7.47
2018-12-08T23:43:18.393Z,7.90
2018-12-08T23:45:47.223Z,6.70
2018-12-08T23:48:16.582Z,7.30
2018-12-08T23:50:46.073Z,6.50
2018-12-08T23:53:14.887Z,7.30
2018-12-08T23:55:44.300Z,6.83
2018-12-08T23:58:13.191Z,5.00
